createdAt,value
2019-03-19T00:00:25.859Z,4.04
2019-03-19T00:02:55.401Z,4.00
2019-03-19T00:05:24.922Z,3.99
2019-03-19T00:07:54.451Z,4.01
2019-03-19T00:10:24.048Z,4.04
2019-03-19T00:12:53.565Z,4.07
2019-03-19T00:15:23.172Z,4.06
2019-03-19T00:17:52.716Z,4.02
2019-03-19T00:20:22.232Z,3.97
2019-03-19T00:22:51.763Z,3.92
2019-03-19T00:25:29.338Z,3.85
2019-03-19T00:27:52.754Z,3.78
2019-03-19T00:30:22.274Z,3.68
2019-03-19T00:32:51.809Z,3.58
2019-03-19T00:35:21.399Z,3.49
2019-03-19T00:37:50.920Z,3.44
2019-03-19T00:40:20.468Z,3.43
2019-03-19T00:42:49.990Z,3.46
2019-03-19T00:45:19.519Z,3.52
2019-03-19T00:47:49.065Z,3.59
2019-03-19T00:50:18.666Z,3.63
2019-03-19T00:52:48.219Z,3.68
2019-03-19T00:55:18.319Z,3.70
2019-03-19T00:57:47.836Z,3.71
2019-03-19T01:00:20.150Z,3.69
2019-03-19T01:02:49.694Z,3.64
2019-03-19T01:05:19.382Z,3.51
2019-03-19T01:07:48.967Z,3.39
2019-03-19T01:10:18.807Z,3.28
2019-03-19T01:12:48.630Z,3.17
2019-03-19T01:15:18.305Z,3.05
2019-03-19T01:17:47.846Z,2.98
2019-03-19T01:20:17.898Z,3.00
2019-03-19T01:22:47.456Z,3.06
2019-03-19T01:25:17.068Z,3.15
2019-03-19T01:27:46.882Z,3.23
2019-03-19T01:30:17.510Z,3.31
2019-03-19T01:32:47.412Z,3.35
2019-03-19T01:35:16.912Z,3.43
2019-03-19T01:37:46.434Z,3.52
2019-03-19T01:40:15.985Z,3.59
2019-03-19T01:42:45.573Z,3.62
2019-03-19T01:45:15.425Z,3.68
2019-03-19T01:47:45.036Z,3.73
2019-03-19T01:50:15.959Z,3.77
2019-03-19T01:52:45.542Z,3.81
2019-03-19T01:55:16.091Z,3.86
2019-03-19T01:57:45.602Z,3.88
2019-03-19T02:00:19.426Z,3.93
2019-03-19T02:02:48.975Z,3.99
2019-03-19T02:05:18.827Z,4.01
2019-03-19T02:07:48.338Z,4.03
2019-03-19T02:10:17.880Z,4.02
2019-03-19T02:12:47.429Z,4.03
2019-03-19T02:15:18.582Z,4.03
2019-03-19T02:17:48.159Z,4.05
2019-03-19T02:20:18.725Z,4.06
2019-03-19T02:22:48.263Z,4.07
2019-03-19T02:25:17.794Z,4.07
2019-03-19T02:27:47.333Z,4.00
2019-03-19T02:30:17.709Z,3.97
2019-03-19T02:32:47.394Z,3.96
2019-03-19T02:35:16.902Z,3.95
2019-03-19T02:37:46.435Z,3.94
2019-03-19T02:40:17.467Z,3.93
2019-03-19T02:42:46.971Z,3.88
2019-03-19T02:45:16.762Z,3.87
2019-03-19T02:47:46.295Z,3.85
2019-03-19T02:50:17.441Z,3.79
2019-03-19T02:52:46.948Z,3.67
2019-03-19T02:55:16.616Z,3.55
2019-03-19T02:57:46.151Z,3.48
2019-03-19T03:00:19.344Z,3.42
2019-03-19T03:02:49.032Z,3.39
2019-03-19T03:05:22.221Z,3.36
2019-03-19T03:07:51.740Z,3.32
2019-03-19T03:10:21.289Z,3.28
2019-03-19T03:12:50.804Z,3.23
2019-03-19T03:15:20.567Z,3.14
2019-03-19T03:17:50.354Z,3.04
2019-03-19T03:20:19.927Z,2.98
2019-03-19T03:22:49.449Z,2.91
2019-03-19T03:25:19.368Z,2.83
2019-03-19T03:27:48.881Z,2.77
2019-03-19T03:30:22.669Z,2.76
2019-03-19T03:32:52.342Z,2.77
2019-03-19T03:35:21.884Z,2.80
2019-03-19T03:37:51.379Z,2.82
2019-03-19T03:40:21.552Z,2.81
2019-03-19T03:42:51.068Z,2.82
2019-03-19T03:45:21.335Z,2.89
2019-03-19T03:47:50.865Z,2.96
2019-03-19T03:50:20.861Z,3.02
2019-03-19T03:52:50.378Z,3.06
2019-03-19T03:55:20.974Z,3.13
2019-03-19T03:57:50.515Z,3.20
2019-03-19T04:00:24.100Z,3.22
2019-03-19T04:02:53.684Z,3.23
2019-03-19T04:05:23.217Z,3.28
2019-03-19T04:07:52.747Z,3.33
2019-03-19T04:10:22.353Z,3.39
2019-03-19T04:12:51.882Z,3.42
2019-03-19T04:15:21.561Z,3.46
2019-03-19T04:17:51.098Z,3.49
2019-03-19T04:20:20.624Z,3.53
2019-03-19T04:22:50.147Z,3.56
2019-03-19T04:25:20.210Z,3.55
2019-03-19T04:27:49.728Z,3.58
2019-03-19T04:30:22.836Z,3.60
2019-03-19T04:32:52.603Z,3.60
2019-03-19T04:35:22.132Z,3.61
2019-03-19T04:37:51.718Z,3.59
2019-03-19T04:40:21.343Z,3.59
2019-03-19T04:42:50.864Z,3.60
2019-03-19T04:45:20.455Z,3.62
2019-03-19T04:47:50.047Z,3.66
2019-03-19T04:50:19.638Z,3.68
2019-03-19T04:52:49.249Z,3.69
2019-03-19T04:55:19.379Z,3.71
2019-03-19T04:57:48.891Z,3.74
2019-03-19T05:00:19.528Z,3.78
2019-03-19T05:02:49.076Z,3.81
2019-03-19T05:05:18.664Z,3.83
2019-03-19T05:07:48.182Z,3.83
2019-03-19T05:10:18.748Z,3.81
2019-03-19T05:12:48.268Z,3.81
2019-03-19T05:15:17.793Z,3.80
2019-03-19T05:17:47.321Z,3.81
2019-03-19T05:20:18.246Z,3.83
2019-03-19T05:22:47.796Z,3.83
2019-03-19T05:25:17.337Z,3.85
2019-03-19T05:27:46.861Z,3.85
2019-03-19T05:30:19.177Z,3.85
2019-03-19T05:32:48.724Z,3.85
2019-03-19T05:35:18.240Z,3.86
2019-03-19T05:37:47.770Z,3.86
2019-03-19T05:40:18.814Z,3.87
2019-03-19T05:42:48.337Z,3.86
2019-03-19T05:45:18.295Z,3.86
2019-03-19T05:47:48.025Z,3.87
2019-03-19T05:50:20.159Z,3.89
2019-03-19T05:52:49.672Z,3.93
2019-03-19T05:55:19.305Z,3.99
2019-03-19T05:57:50.349Z,4.03
2019-03-19T06:00:22.666Z,4.05
2019-03-19T06:02:52.238Z,4.07
2019-03-19T06:05:21.779Z,4.09
2019-03-19T06:07:51.518Z,4.09
2019-03-19T06:10:21.693Z,4.12
2019-03-19T06:12:51.215Z,4.17
2019-03-19T06:15:20.747Z,4.21
2019-03-19T06:17:50.477Z,4.25
2019-03-19T06:20:20.902Z,4.28
2019-03-19T06:22:50.441Z,4.34
2019-03-19T06:25:20.047Z,4.41
2019-03-19T06:27:59.964Z,4.48
2019-03-19T06:30:23.492Z,4.55
2019-03-19T06:32:53.341Z,4.61
2019-03-19T06:35:23.020Z,4.67
2019-03-19T06:37:52.547Z,4.77
2019-03-19T06:40:23.209Z,4.83
2019-03-19T06:42:52.744Z,4.90
2019-03-19T06:45:23.472Z,4.96
2019-03-19T06:47:53.224Z,5.03
2019-03-19T06:50:23.331Z,5.15
2019-03-19T06:52:52.861Z,5.29
2019-03-19T06:55:23.090Z,5.43
2019-03-19T06:57:52.620Z,5.51
2019-03-19T07:00:23.665Z,5.53
2019-03-19T07:02:53.633Z,5.54
2019-03-19T07:05:23.598Z,5.58
2019-03-19T07:07:53.173Z,5.60
2019-03-19T07:10:23.343Z,5.83
2019-03-19T07:12:52.850Z,6.26
2019-03-19T07:15:23.622Z,6.76
2019-03-19T07:17:53.663Z,7.29
2019-03-19T07:20:28.809Z,8.04
2019-03-19T07:22:58.364Z,9.00
2019-03-19T07:25:28.334Z,9.91
2019-03-19T07:27:57.871Z,10.10
2019-03-19T07:30:28.255Z,9.94
2019-03-19T07:32:58.058Z,9.52
2019-03-19T07:35:27.579Z,9.25
2019-03-19T07:37:57.093Z,8.94
2019-03-19T07:40:26.644Z,8.80
2019-03-19T07:42:56.156Z,8.89
2019-03-19T07:45:26.619Z,9.00
2019-03-19T07:47:56.323Z,9.09
2019-03-19T07:50:26.222Z,9.10
2019-03-19T07:52:55.819Z,9.28
2019-03-19T07:55:25.367Z,9.61
2019-03-19T07:57:54.909Z,10.34
2019-03-19T08:00:24.674Z,10.91
2019-03-19T08:02:54.574Z,11.20
2019-03-19T08:05:32.487Z,11.24
2019-03-19T08:07:55.437Z,11.19
2019-03-19T08:10:25.095Z,11.07
2019-03-19T08:12:54.674Z,10.96
2019-03-19T08:15:24.284Z,10.89
2019-03-19T08:17:53.862Z,10.95
2019-03-19T08:20:23.431Z,11.62
2019-03-19T08:22:52.958Z,12.41
2019-03-19T08:25:22.601Z,13.12
2019-03-19T08:27:52.164Z,13.76
2019-03-19T08:30:29.315Z,14.96
2019-03-19T08:32:58.882Z,15.65
2019-03-19T08:35:28.418Z,16.01
2019-03-19T08:37:58.139Z,15.41
2019-03-19T08:40:27.685Z,14.79
2019-03-19T08:42:58.265Z,14.44
2019-03-19T08:45:28.372Z,14.29
2019-03-19T08:48:02.257Z,14.07
2019-03-19T08:50:31.799Z,14.55
2019-03-19T08:53:01.362Z,14.72
2019-03-19T08:55:30.969Z,15.36
2019-03-19T08:58:00.508Z,15.51
2019-03-19T09:00:30.438Z,15.17
2019-03-19T09:02:59.953Z,14.69
2019-03-19T09:05:29.595Z,14.61
2019-03-19T09:07:59.290Z,14.40
2019-03-19T09:10:28.795Z,14.09
2019-03-19T09:12:58.332Z,14.35
2019-03-19T09:15:30.964Z,14.41
2019-03-19T09:18:00.527Z,14.54
2019-03-19T09:20:30.048Z,14.68
2019-03-19T09:22:59.585Z,14.21
2019-03-19T09:25:29.098Z,13.68
2019-03-19T09:27:58.623Z,13.22
2019-03-19T09:30:28.159Z,12.68
2019-03-19T09:32:57.680Z,12.22
2019-03-19T09:35:27.199Z,11.63
2019-03-19T09:37:58.908Z,11.22
2019-03-19T09:40:28.135Z,11.07
2019-03-19T09:42:57.654Z,11.57
2019-03-19T09:45:27.370Z,12.51
2019-03-19T09:47:56.876Z,12.85
2019-03-19T09:50:27.200Z,12.52
2019-03-19T09:52:56.809Z,12.25
2019-03-19T09:55:26.328Z,12.31
2019-03-19T09:57:56.148Z,13.35
2019-03-19T10:00:26.101Z,14.56
2019-03-19T10:02:55.694Z,15.00
2019-03-19T10:05:25.299Z,15.77
2019-03-19T10:07:55.729Z,16.37
2019-03-19T10:10:25.745Z,17.53
2019-03-19T10:12:55.295Z,18.73
2019-03-19T10:15:25.433Z,19.24
2019-03-19T10:17:54.967Z,18.18
2019-03-19T10:20:26.000Z,17.31
2019-03-19T10:22:55.519Z,17.01
2019-03-19T10:25:25.064Z,17.32
2019-03-19T10:27:54.613Z,17.88
2019-03-19T10:30:25.265Z,18.35
2019-03-19T10:32:54.883Z,18.60
2019-03-19T10:35:24.373Z,18.94
2019-03-19T10:37:54.012Z,18.60
2019-03-19T10:40:23.795Z,17.67
2019-03-19T10:42:53.363Z,17.41
2019-03-19T10:45:24.296Z,17.32
2019-03-19T10:47:53.894Z,17.33
2019-03-19T10:50:28.519Z,17.12
2019-03-19T10:52:58.490Z,17.14
2019-03-19T10:55:27.993Z,17.27
2019-03-19T10:57:57.520Z,17.42
2019-03-19T11:00:28.005Z,17.32
2019-03-19T11:02:57.490Z,16.71
2019-03-19T11:05:27.192Z,16.28
2019-03-19T11:07:56.718Z,16.35
2019-03-19T11:10:26.468Z,16.19
2019-03-19T11:12:55.977Z,15.68
2019-03-19T11:15:31.483Z,15.37
2019-03-19T11:18:00.536Z,15.38
2019-03-19T11:20:30.053Z,15.23
2019-03-19T11:22:59.588Z,14.98
2019-03-19T11:25:33.083Z,14.40
2019-03-19T11:28:02.630Z,13.78
2019-03-19T11:30:33.110Z,13.25
2019-03-19T11:33:02.688Z,12.72
2019-03-19T11:35:32.205Z,12.21
2019-03-19T11:38:01.736Z,11.72
2019-03-19T11:40:31.250Z,11.31
2019-03-19T11:43:00.757Z,10.95
2019-03-19T11:45:30.733Z,10.63
2019-03-19T11:48:00.253Z,10.41
2019-03-19T11:50:33.414Z,10.32
2019-03-19T11:53:02.532Z,10.23
2019-03-19T11:55:32.052Z,10.18
2019-03-19T11:58:01.568Z,10.15
2019-03-19T12:00:45.388Z,10.16
2019-03-19T12:03:16.342Z,10.29
2019-03-19T12:05:46.302Z,10.57
2019-03-19T12:08:15.835Z,10.75
2019-03-19T12:10:45.367Z,11.00
2019-03-19T12:13:15.220Z,11.17
2019-03-19T12:15:44.789Z,11.38
2019-03-19T12:18:14.306Z,11.61
2019-03-19T12:20:43.814Z,11.74
2019-03-19T12:23:13.331Z,11.71
2019-03-19T12:25:42.846Z,11.48
2019-03-19T12:28:12.363Z,11.12
2019-03-19T12:30:41.897Z,10.82
2019-03-19T12:33:11.412Z,10.66
2019-03-19T12:35:40.933Z,10.48
2019-03-19T12:38:10.607Z,10.32
2019-03-19T12:40:40.120Z,10.22
2019-03-19T12:43:09.638Z,10.14
2019-03-19T12:45:39.170Z,10.25
2019-03-19T12:48:08.703Z,10.38
2019-03-19T12:50:38.219Z,10.39
2019-03-19T12:53:07.967Z,10.38
2019-03-19T12:55:37.477Z,10.33
2019-03-19T12:58:07.196Z,10.16
2019-03-19T13:00:36.726Z,10.03
2019-03-19T13:03:06.783Z,9.93
2019-03-19T13:05:36.286Z,9.82
2019-03-19T13:08:05.911Z,9.78
2019-03-19T13:10:35.418Z,9.84
2019-03-19T13:13:05.294Z,9.93
2019-03-19T13:15:35.176Z,10.04
2019-03-19T13:18:04.948Z,10.21
2019-03-19T13:20:34.473Z,10.42
2019-03-19T13:23:04.181Z,10.50
2019-03-19T13:25:33.700Z,10.50
2019-03-19T13:28:03.220Z,10.48
2019-03-19T13:30:44.100Z,10.42
2019-03-19T13:33:04.789Z,10.24
2019-03-19T13:35:34.297Z,10.11
2019-03-19T13:38:03.983Z,10.00
2019-03-19T13:40:33.570Z,9.87
2019-03-19T13:43:03.091Z,9.83
2019-03-19T13:45:32.791Z,9.84
2019-03-19T13:48:02.297Z,9.85
2019-03-19T13:50:31.810Z,9.93
2019-03-19T13:53:01.342Z,10.16
2019-03-19T13:55:30.871Z,10.36
2019-03-19T13:58:00.384Z,10.46
2019-03-19T14:00:30.353Z,10.52
2019-03-19T14:02:59.882Z,10.51
2019-03-19T14:05:29.393Z,10.52
2019-03-19T14:07:59.004Z,10.50
2019-03-19T14:10:28.559Z,10.46
2019-03-19T14:12:58.067Z,10.40
2019-03-19T14:15:29.075Z,10.20
2019-03-19T14:17:58.597Z,9.99
2019-03-19T14:20:28.097Z,9.82
2019-03-19T14:22:57.710Z,9.75
2019-03-19T14:25:27.227Z,9.69
2019-03-19T14:27:56.730Z,9.73
2019-03-19T14:30:27.799Z,9.81
2019-03-19T14:32:57.369Z,9.83
2019-03-19T14:35:36.884Z,9.87
2019-03-19T14:37:58.343Z,9.90
2019-03-19T14:40:28.309Z,9.95
2019-03-19T14:43:01.017Z,10.02
2019-03-19T14:45:29.111Z,10.04
2019-03-19T14:47:58.617Z,10.07
2019-03-19T14:50:28.213Z,10.11
2019-03-19T14:52:57.737Z,10.03
2019-03-19T14:55:27.250Z,9.86
2019-03-19T14:57:56.766Z,9.67
2019-03-19T15:00:26.306Z,9.54
2019-03-19T15:02:55.826Z,9.46
2019-03-19T15:05:25.339Z,9.34
2019-03-19T15:07:54.848Z,9.19
2019-03-19T15:10:25.098Z,9.10
2019-03-19T15:12:54.598Z,9.06
2019-03-19T15:15:24.369Z,9.02
2019-03-19T15:17:53.877Z,8.94
2019-03-19T15:20:28.537Z,8.87
2019-03-19T15:22:58.079Z,8.83
2019-03-19T15:25:27.581Z,8.80
2019-03-19T15:27:57.091Z,8.82
2019-03-19T15:30:26.614Z,8.86
2019-03-19T15:32:56.140Z,8.89
2019-03-19T15:35:25.645Z,8.91
2019-03-19T15:37:55.290Z,8.95
2019-03-19T15:40:24.794Z,9.03
2019-03-19T15:42:54.295Z,9.11
2019-03-19T15:45:27.786Z,9.16
2019-03-19T15:47:57.285Z,9.18
2019-03-19T15:50:26.862Z,9.20
2019-03-19T15:52:56.426Z,9.19
2019-03-19T15:55:25.951Z,9.18
2019-03-19T15:57:55.479Z,9.19
2019-03-19T16:00:25.354Z,9.16
2019-03-19T16:02:54.798Z,9.18
2019-03-19T16:05:24.310Z,9.20
2019-03-19T16:07:53.953Z,9.20
2019-03-19T16:10:23.459Z,9.17
2019-03-19T16:12:52.980Z,9.13
2019-03-19T16:15:23.603Z,9.12
2019-03-19T16:17:53.181Z,9.11
2019-03-19T16:20:23.526Z,9.08
2019-03-19T16:22:53.139Z,9.06
2019-03-19T16:25:22.648Z,9.03
2019-03-19T16:27:52.231Z,9.01
2019-03-19T16:30:22.025Z,9.01
2019-03-19T16:32:51.600Z,8.99
2019-03-19T16:35:21.152Z,8.95
2019-03-19T16:37:50.778Z,8.90
2019-03-19T16:40:22.652Z,8.82
2019-03-19T16:42:52.184Z,8.74
2019-03-19T16:45:22.053Z,8.67
2019-03-19T16:47:51.547Z,8.59
2019-03-19T16:50:24.565Z,8.47
2019-03-19T16:52:54.246Z,8.31
2019-03-19T16:55:23.829Z,8.14
2019-03-19T16:57:53.332Z,7.97
2019-03-19T17:00:25.154Z,7.80
2019-03-19T17:02:54.663Z,7.62
2019-03-19T17:05:24.232Z,7.46
2019-03-19T17:07:54.063Z,7.31
2019-03-19T17:10:29.336Z,7.18
2019-03-19T17:12:58.890Z,7.05
2019-03-19T17:15:28.398Z,6.91
2019-03-19T17:17:57.955Z,6.81
2019-03-19T17:20:27.469Z,6.70
2019-03-19T17:22:56.988Z,6.61
2019-03-19T17:25:27.195Z,6.52
2019-03-19T17:27:56.746Z,6.46
2019-03-19T17:30:31.823Z,6.37
2019-03-19T17:33:01.347Z,6.30
2019-03-19T17:35:31.014Z,6.21
2019-03-19T17:38:00.521Z,6.15
2019-03-19T17:40:40.549Z,6.08
2019-03-19T17:43:01.288Z,6.03
2019-03-19T17:45:30.795Z,5.99
2019-03-19T17:48:00.578Z,5.94
2019-03-19T17:50:42.702Z,5.86
2019-03-19T17:53:12.437Z,5.79
2019-03-19T17:55:41.941Z,5.71
2019-03-19T17:58:11.443Z,5.63
2019-03-19T18:00:45.638Z,5.58
2019-03-19T18:03:15.170Z,5.55
2019-03-19T18:05:44.689Z,5.53
2019-03-19T18:08:14.340Z,5.52
2019-03-19T18:10:43.851Z,5.52
2019-03-19T18:13:13.353Z,5.53
2019-03-19T18:15:42.878Z,5.48
2019-03-19T18:18:12.388Z,5.47
2019-03-19T18:20:41.886Z,5.47
2019-03-19T18:23:11.427Z,5.46
2019-03-19T18:25:40.928Z,5.46
2019-03-19T18:28:10.418Z,5.42
2019-03-19T18:30:39.968Z,5.38
2019-03-19T18:33:09.480Z,5.33
2019-03-19T18:35:38.991Z,5.27
2019-03-19T18:38:08.603Z,5.23
2019-03-19T18:40:38.242Z,5.19
2019-03-19T18:43:07.762Z,5.16
2019-03-19T18:45:37.537Z,5.14
2019-03-19T18:48:07.045Z,5.10
2019-03-19T18:50:36.538Z,5.05
2019-03-19T18:53:06.363Z,5.03
2019-03-19T18:55:35.869Z,5.00
2019-03-19T18:58:05.368Z,4.93
2019-03-19T19:00:35.286Z,4.86
2019-03-19T19:03:04.834Z,4.82
2019-03-19T19:05:34.663Z,4.80
2019-03-19T19:08:04.199Z,4.75
2019-03-19T19:10:33.720Z,4.72
2019-03-19T19:13:03.220Z,4.66
2019-03-19T19:15:32.910Z,4.58
2019-03-19T19:18:02.414Z,4.54
2019-03-19T19:20:31.930Z,4.49
2019-03-19T19:23:02.874Z,4.44
2019-03-19T19:25:32.773Z,4.38
2019-03-19T19:28:02.300Z,4.36
2019-03-19T19:30:33.509Z,4.32
2019-03-19T19:33:03.018Z,4.31
2019-03-19T19:35:32.580Z,4.26
2019-03-19T19:38:03.325Z,4.22
2019-03-19T19:40:33.218Z,4.16
2019-03-19T19:43:02.708Z,4.13
2019-03-19T19:45:32.245Z,4.09
2019-03-19T19:48:01.746Z,4.06
2019-03-19T19:50:31.267Z,4.09
2019-03-19T19:53:00.948Z,4.12
2019-03-19T19:55:30.467Z,4.10
2019-03-19T19:57:59.966Z,4.06
2019-03-19T20:00:29.660Z,4.04
2019-03-19T20:02:59.182Z,4.01
2019-03-19T20:05:28.680Z,3.97
2019-03-19T20:07:58.196Z,3.96
2019-03-19T20:10:28.481Z,3.92
2019-03-19T20:12:57.986Z,3.89
2019-03-19T20:15:27.541Z,3.85
2019-03-19T20:17:57.052Z,3.80
2019-03-19T20:20:30.139Z,3.74
2019-03-19T20:22:59.821Z,3.70
2019-03-19T20:25:29.367Z,3.72
2019-03-19T20:27:58.900Z,3.77
2019-03-19T20:30:29.162Z,3.79
2019-03-19T20:32:58.671Z,3.81
2019-03-19T20:35:28.243Z,3.81
2019-03-19T20:37:57.868Z,3.82
2019-03-19T20:40:27.376Z,3.81
2019-03-19T20:42:56.874Z,3.78
2019-03-19T20:45:29.723Z,3.75
2019-03-19T20:47:59.296Z,3.71
2019-03-19T20:50:38.271Z,3.64
2019-03-19T20:53:07.843Z,3.57
2019-03-19T20:55:37.346Z,3.51
2019-03-19T20:58:07.292Z,3.49
2019-03-19T21:00:36.826Z,3.49
2019-03-19T21:03:06.716Z,3.46
2019-03-19T21:05:36.260Z,3.39
2019-03-19T21:08:05.949Z,3.32
2019-03-19T21:10:35.464Z,3.28
2019-03-19T21:13:05.566Z,3.24
2019-03-19T21:15:35.052Z,3.21
2019-03-19T21:18:04.636Z,3.23
2019-03-19T21:20:34.157Z,3.22
2019-03-19T21:23:03.667Z,3.20
2019-03-19T21:25:33.162Z,3.19
2019-03-19T21:28:13.235Z,3.17
2019-03-19T21:30:33.914Z,3.15
2019-03-19T21:33:03.417Z,3.16
2019-03-19T21:35:32.952Z,3.15
2019-03-19T21:38:02.461Z,3.15
2019-03-19T21:40:31.989Z,3.16
2019-03-19T21:43:01.833Z,3.16
2019-03-19T21:45:31.341Z,3.15
2019-03-19T21:48:00.866Z,3.14
2019-03-19T21:50:30.385Z,3.15
2019-03-19T21:52:59.899Z,3.17
2019-03-19T21:55:29.397Z,3.17
2019-03-19T21:57:58.921Z,3.15
2019-03-19T22:00:28.521Z,3.10
2019-03-19T22:02:58.023Z,3.10
2019-03-19T22:05:27.575Z,3.09
2019-03-19T22:07:57.060Z,3.07
2019-03-19T22:10:26.559Z,3.07
2019-03-19T22:12:56.277Z,3.06
2019-03-19T22:15:26.719Z,3.06
2019-03-19T22:17:56.365Z,3.05
2019-03-19T22:20:26.327Z,3.04
2019-03-19T22:22:55.826Z,2.99
2019-03-19T22:25:25.339Z,2.91
2019-03-19T22:27:55.255Z,2.84
2019-03-19T22:30:24.760Z,2.76
2019-03-19T22:32:54.263Z,2.70
2019-03-19T22:35:23.786Z,2.65
2019-03-19T22:37:53.295Z,2.63
2019-03-19T22:40:22.798Z,2.64
2019-03-19T22:42:52.389Z,2.64
2019-03-19T22:45:21.897Z,2.64
2019-03-19T22:47:51.403Z,2.66
2019-03-19T22:50:21.114Z,2.66
2019-03-19T22:52:50.619Z,2.69
2019-03-19T22:55:28.472Z,2.71
2019-03-19T22:57:51.365Z,2.74
2019-03-19T23:00:35.754Z,2.74
2019-03-19T23:03:07.462Z,2.71
2019-03-19T23:05:37.392Z,2.68
2019-03-19T23:08:06.894Z,2.66
2019-03-19T23:10:36.775Z,2.62
2019-03-19T23:13:06.431Z,2.61
2019-03-19T23:15:36.106Z,2.57
2019-03-19T23:18:06.116Z,2.53
2019-03-19T23:20:35.786Z,2.50
2019-03-19T23:23:05.801Z,2.46
2019-03-19T23:25:35.494Z,2.45
2019-03-19T23:28:05.218Z,2.41
2019-03-19T23:30:34.730Z,2.36
2019-03-19T23:33:04.346Z,2.31
2019-03-19T23:35:33.843Z,2.23
2019-03-19T23:38:03.349Z,2.18
2019-03-19T23:40:33.033Z,2.16
2019-03-19T23:43:02.546Z,2.11
2019-03-19T23:45:32.305Z,2.07
2019-03-19T23:48:02.171Z,2.02
2019-03-19T23:50:31.662Z,1.98
2019-03-19T23:53:01.250Z,1.95
2019-03-19T23:55:30.755Z,1.92
2019-03-19T23:58:00.281Z,1.88
